Time;durP1;ratioP1;P1;durP2;ratioP2;P2;SDS_P1;SDS_P2;PMS_P1;PMS_P2;Temp;Humidity;BMP_temperature;BMP_pressure;BME280_temperature;BME280_humidity;BME280_pressure;Samples;Min_cycle;Max_cycle;Signal;HPM_P1;HPM_P2
2022/11/27 00:01:19;;;;;;;;;;;6.70;99.90;;;;;;5089690;28;20321;-66
2022/11/27 00:03:45;;;;;;;;;;;6.60;99.90;;;;;;5125208;27;19931;-65
2022/11/27 00:06:12;;;;;;;;;;;6.60;99.90;;;;;;5095128;28;20334;-64
2022/11/27 00:08:38;;;;;;;;;;;6.60;99.90;;;;;;5094978;28;19924;-64
2022/11/27 00:11:05;;;;;;;;;;;6.60;99.90;;;;;;5095487;28;19924;-64
2022/11/27 00:13:30;;;;;;;;;;;6.60;99.90;;;;;;5094787;28;20365;-65
2022/11/27 00:15:56;;;;;;;;;;;6.50;99.90;;;;;;5094980;28;19932;-65
2022/11/27 00:18:21;;;;;;;;;;;6.60;99.90;;;;;;5093928;28;19947;-65
2022/11/27 00:20:47;;;;;;;;;;;6.60;99.90;;;;;;5095276;28;19931;-65
2022/11/27 00:23:12;;;;;;;;;;;6.50;99.90;;;;;;5093420;28;20045;-65
2022/11/27 00:25:38;;;;;;;;;;;6.50;99.90;;;;;;5094908;28;19931;-65
2022/11/27 00:28:03;;;;;;;;;;;6.50;99.90;;;;;;5094774;28;19924;-65
2022/11/27 00:30:29;;;;;;;;;;;6.50;99.90;;;;;;5076734;28;20259;-65
2022/11/27 00:32:55;;;;;;;;;;;6.50;99.90;;;;;;5094939;28;19924;-64
2022/11/27 00:35:20;;;;;;;;;;;6.40;99.90;;;;;;5093007;28;19932;-65
2022/11/27 00:37:46;;;;;;;;;;;6.50;99.90;;;;;;5094730;28;20333;-63
2022/11/27 00:40:11;;;;;;;;;;;6.50;99.90;;;;;;5094633;28;20238;-65
2022/11/27 00:42:37;;;;;;;;;;;6.50;99.90;;;;;;5094250;28;20001;-65
2022/11/27 00:45:03;;;;;;;;;;;6.50;99.90;;;;;;5094753;28;20352;-65
2022/11/27 00:47:28;;;;;;;;;;;6.40;99.90;;;;;;5093886;28;20513;-65
2022/11/27 00:49:54;;;;;;;;;;;6.40;99.90;;;;;;5094513;28;19924;-65
2022/11/27 00:52:19;;;;;;;;;;;6.40;99.90;;;;;;5109957;28;20358;-66
2022/11/27 00:54:45;;;;;;;;;;;6.40;99.90;;;;;;5094115;28;20018;-65
2022/11/27 00:57:10;;;;;;;;;;;6.30;99.90;;;;;;5094294;28;19924;-64
2022/11/27 00:59:36;;;;;;;;;;;6.30;99.90;;;;;;5094085;28;19925;-64
2022/11/27 01:02:01;;;;;;;;;;;6.30;99.90;;;;;;5094073;28;20031;-64
2022/11/27 01:04:27;;;;;;;;;;;6.30;99.90;;;;;;5093809;28;19925;-63
2022/11/27 01:06:53;;;;;;;;;;;6.30;99.90;;;;;;5093512;28;19989;-64
2022/11/27 01:09:18;;;;;;;;;;;6.30;99.90;;;;;;5093817;28;19928;-66
2022/11/27 01:11:44;;;;;;;;;;;6.30;99.90;;;;;;5126650;27;19971;-64
2022/11/27 01:14:15;;;;;;;;;;;6.30;99.90;;;;;;5093965;28;19928;-64
2022/11/27 01:16:40;;;;;;;;;;;6.30;99.90;;;;;;5092568;28;19977;-64
2022/11/27 01:19:06;;;;;;;;;;;6.20;99.90;;;;;;5109969;28;19928;-64
2022/11/27 01:21:33;;;;;;;;;;;6.30;99.90;;;;;;5093267;28;20011;-65
2022/11/27 01:23:59;;;;;;;;;;;6.20;99.90;;;;;;5093414;28;19928;-65
2022/11/27 01:26:24;;;;;;;;;;;6.20;99.90;;;;;;5093330;28;19932;-63
2022/11/27 01:28:50;;;;;;;;;;;6.20;99.90;;;;;;5093747;28;19975;-64
2022/11/27 01:31:18;;;;;;;;;;;6.20;99.90;;;;;;5092886;28;19931;-63
2022/11/27 01:33:44;;;;;;;;;;;6.20;99.90;;;;;;5093206;28;19924;-63
2022/11/27 01:36:11;;;;;;;;;;;6.20;99.90;;;;;;5093437;28;19924;-63
2022/11/27 01:38:36;;;;;;;;;;;6.20;99.90;;;;;;5092948;28;19981;-65
2022/11/27 01:41:12;;;;;;;;;;;5.80;99.90;;;;;;5093326;28;20022;-65
2022/11/27 01:43:45;;;;;;;;;;;6.20;99.90;;;;;;5091974;28;19931;-66
2022/11/27 01:46:26;;;;;;;;;;;6.10;99.90;;;;;;5093365;28;19931;-64
2022/11/27 01:48:53;;;;;;;;;;;6.10;99.90;;;;;;5092864;28;20044;-66
2022/11/27 01:51:19;;;;;;;;;;;6.10;99.90;;;;;;5093097;28;19927;-64
2022/11/27 01:53:45;;;;;;;;;;;6.10;99.90;;;;;;5092769;28;19977;-64
2022/11/27 01:56:11;;;;;;;;;;;6.10;99.90;;;;;;5092889;28;20335;-66
2022/11/27 01:58:37;;;;;;;;;;;6.10;99.90;;;;;;5091008;28;19935;-64
2022/11/27 02:01:03;;;;;;;;;;;6.10;99.90;;;;;;5092971;28;20309;-64
2022/11/27 02:03:29;;;;;;;;;;;6.00;99.90;;;;;;5125433;27;19931;-63
2022/11/27 02:05:54;;;;;;;;;;;6.00;99.90;;;;;;5092897;28;19924;-64
2022/11/27 02:08:20;;;;;;;;;;;6.00;99.90;;;;;;5092919;28;19924;-65
2022/11/27 02:10:54;;;;;;;;;;;6.00;99.90;;;;;;5091977;28;19985;-64
2022/11/27 02:13:37;;;;;;;;;;;5.80;99.90;;;;;;5125478;27;20381;-65
2022/11/27 02:16:09;;;;;;;;;;;6.00;99.90;;;;;;5091876;28;19930;-65
2022/11/27 02:18:40;;;;;;;;;;;6.00;99.90;;;;;;5092642;28;19981;-67
2022/11/27 02:21:09;;;;;;;;;;;6.00;99.90;;;;;;5125610;27;19973;-64
2022/11/27 02:23:38;;;;;;;;;;;6.00;99.90;;;;;;5092359;28;19924;-64
2022/11/27 02:26:24;;;;;;;;;;;6.00;99.90;;;;;;5125530;27;19931;-65
2022/11/27 02:29:04;;;;;;;;;;;6.00;99.90;;;;;;5093683;27;19928;-64
2022/11/27 02:31:29;;;;;;;;;;;6.00;99.90;;;;;;5090597;28;19978;-65
2022/11/27 02:33:58;;;;;;;;;;;6.10;99.90;;;;;;5091570;28;19975;-64
2022/11/27 02:36:28;;;;;;;;;;;6.00;99.90;;;;;;5092277;28;19932;-65
2022/11/27 02:39:20;;;;;;;;;;;6.00;99.90;;;;;;5091126;28;19924;-66
2022/11/27 02:41:47;;;;;;;;;;;6.00;99.90;;;;;;5121640;27;19928;-63
2022/11/27 02:44:14;;;;;;;;;;;6.00;99.90;;;;;;5092443;28;19931;-65
2022/11/27 02:46:40;;;;;;;;;;;6.00;99.90;;;;;;5092022;28;19928;-63
2022/11/27 02:49:08;;;;;;;;;;;6.10;99.90;;;;;;5092269;28;19924;-65
2022/11/27 02:51:40;;;;;;;;;;;6.00;99.90;;;;;;5090800;28;20002;-64
2022/11/27 02:54:06;;;;;;;;;;;6.00;99.90;;;;;;5092301;28;19977;-64
2022/11/27 02:56:33;;;;;;;;;;;6.00;99.90;;;;;;5092050;28;19975;-64
2022/11/27 02:59:00;;;;;;;;;;;6.00;99.90;;;;;;5107995;28;19928;-66
2022/11/27 03:01:28;;;;;;;;;;;6.10;99.90;;;;;;5091211;28;20281;-64
2022/11/27 03:03:55;;;;;;;;;;;6.10;99.90;;;;;;5090384;28;19924;-66
2022/11/27 03:06:26;;;;;;;;;;;6.10;99.90;;;;;;5092056;28;19931;-64
2022/11/27 03:08:55;;;;;;;;;;;6.10;99.90;;;;;;5091572;28;20373;-63
2022/11/27 03:11:21;;;;;;;;;;;6.20;99.90;;;;;;5090498;28;19927;-64
2022/11/27 03:13:49;;;;;;;;;;;6.20;99.90;;;;;;5091402;28;19969;-64
2022/11/27 03:16:24;;;;;;;;;;;6.30;99.90;;;;;;5091817;28;20233;-64
2022/11/27 03:18:58;;;;;;;;;;;6.30;99.90;;;;;;5091410;28;19931;-65
2022/11/27 03:21:38;;;;;;;;;;;6.30;99.90;;;;;;5107964;28;19924;-65
2022/11/27 03:24:04;;;;;;;;;;;6.30;99.90;;;;;;5091709;28;19930;-66
2022/11/27 03:26:30;;;;;;;;;;;6.30;99.90;;;;;;5091859;28;19969;-65
2022/11/27 03:28:57;;;;;;;;;;;6.30;99.90;;;;;;5091265;28;19990;-64
2022/11/27 03:31:22;;;;;;;;;;;6.30;99.90;;;;;;5091865;28;19931;-64
2022/11/27 03:33:49;;;;;;;;;;;6.30;99.90;;;;;;5091432;28;19928;-65
2022/11/27 03:36:16;;;;;;;;;;;6.30;99.90;;;;;;5091651;28;19931;-65
2022/11/27 03:38:42;;;;;;;;;;;6.30;99.90;;;;;;5125380;27;19923;-66
2022/11/27 03:41:07;;;;;;;;;;;6.40;99.90;;;;;;5095859;28;19930;-64
2022/11/27 03:43:35;;;;;;;;;;;6.40;99.90;;;;;;5095725;28;19928;-65
2022/11/27 03:46:16;;;;;;;;;;;6.40;99.90;;;;;;5094454;28;20452;-63
2022/11/27 03:48:51;;;;;;;;;;;6.50;99.90;;;;;;5093642;28;19924;-66
2022/11/27 03:51:20;;;;;;;;;;;6.40;99.90;;;;;;5095298;28;20382;-65
2022/11/27 03:53:55;;;;;;;;;;;6.40;99.90;;;;;;5095227;28;19930;-66
2022/11/27 03:56:41;;;;;;;;;;;6.40;99.90;;;;;;5095574;28;20455;-64
2022/11/27 03:59:13;;;;;;;;;;;6.40;99.90;;;;;;5095485;28;19970;-65
2022/11/27 04:01:38;;;;;;;;;;;6.40;99.90;;;;;;5128294;27;19978;-66
2022/11/27 04:04:04;;;;;;;;;;;6.50;99.90;;;;;;5093533;28;20323;-64
2022/11/27 04:06:30;;;;;;;;;;;6.40;99.90;;;;;;5128090;27;20129;-64
2022/11/27 04:08:55;;;;;;;;;;;6.40;99.90;;;;;;5094434;28;20364;-65
2022/11/27 04:11:21;;;;;;;;;;;6.40;99.90;;;;;;5095081;28;19924;-66
2022/11/27 04:13:46;;;;;;;;;;;6.40;99.90;;;;;;5093375;28;20347;-65
2022/11/27 04:16:12;;;;;;;;;;;6.40;99.90;;;;;;5127924;27;19931;-65
2022/11/27 04:18:38;;;;;;;;;;;6.40;99.90;;;;;;5127834;27;19950;-64
2022/11/27 04:21:03;;;;;;;;;;;6.40;99.90;;;;;;5093666;28;19977;-64
2022/11/27 04:23:29;;;;;;;;;;;6.30;99.90;;;;;;5094875;28;19924;-65
2022/11/27 04:25:54;;;;;;;;;;;6.30;99.90;;;;;;5094631;28;19931;-64
2022/11/27 04:28:20;;;;;;;;;;;6.30;99.90;;;;;;5094843;28;19924;-65
2022/11/27 04:30:49;;;;;;;;;;;6.30;99.90;;;;;;5093171;28;20274;-69
2022/11/27 04:33:15;;;;;;;;;;;6.40;99.90;;;;;;5093320;28;20323;-66
2022/11/27 04:35:40;;;;;;;;;;;6.30;99.90;;;;;;5094740;28;19924;-65
2022/11/27 04:38:06;;;;;;;;;;;6.30;99.90;;;;;;5094665;28;19945;-67
2022/11/27 04:40:32;;;;;;;;;;;6.30;99.90;;;;;;5094741;28;20349;-65
2022/11/27 04:42:57;;;;;;;;;;;6.30;99.90;;;;;;5094077;28;20404;-67
2022/11/27 04:45:23;;;;;;;;;;;6.30;99.90;;;;;;5093402;28;19977;-65
2022/11/27 04:47:48;;;;;;;;;;;6.80;99.90;;;;;;5092458;28;19930;-65
2022/11/27 04:50:14;;;;;;;;;;;6.30;99.90;;;;;;5093210;28;19955;-65
2022/11/27 04:52:39;;;;;;;;;;;6.30;99.90;;;;;;5110120;28;19925;-65
2022/11/27 04:55:05;;;;;;;;;;;6.20;99.90;;;;;;5093099;28;20039;-66
2022/11/27 04:57:31;;;;;;;;;;;6.20;99.90;;;;;;5094438;28;19979;-65
2022/11/27 04:59:56;;;;;;;;;;;6.20;99.90;;;;;;5093828;28;19928;-66
2022/11/27 05:02:22;;;;;;;;;;;6.20;99.90;;;;;;5093905;28;20013;-66
2022/11/27 05:04:48;;;;;;;;;;;6.20;99.90;;;;;;5092799;28;19935;-67
2022/11/27 05:07:13;;;;;;;;;;;6.20;99.90;;;;;;5093645;28;20377;-65
2022/11/27 05:09:39;;;;;;;;;;;6.10;99.90;;;;;;5092437;28;19931;-65
2022/11/27 05:12:05;;;;;;;;;;;6.10;99.90;;;;;;5092249;28;19925;-65
2022/11/27 05:14:30;;;;;;;;;;;6.10;99.90;;;;;;5126794;27;19971;-66
2022/11/27 05:16:57;;;;;;;;;;;6.10;99.90;;;;;;5093814;28;19996;-66
2022/11/27 05:19:23;;;;;;;;;;;6.10;99.90;;;;;;5092874;28;19923;-65
2022/11/27 05:21:49;;;;;;;;;;;6.10;99.90;;;;;;5093914;28;19927;-65
2022/11/27 05:24:16;;;;;;;;;;;6.10;99.90;;;;;;5092110;28;19924;-65
2022/11/27 05:26:42;;;;;;;;;;;6.10;99.90;;;;;;5109270;28;20330;-65
2022/11/27 05:29:08;;;;;;;;;;;6.10;99.90;;;;;;5093503;28;20336;-68
2022/11/27 05:31:33;;;;;;;;;;;6.10;99.90;;;;;;5093563;28;19946;-65
2022/11/27 05:33:59;;;;;;;;;;;6.00;99.90;;;;;;5092022;28;20104;-65
2022/11/27 05:36:25;;;;;;;;;;;6.00;99.90;;;;;;5126647;27;19950;-65
2022/11/27 05:38:50;;;;;;;;;;;6.00;99.90;;;;;;5093490;28;20369;-65
2022/11/27 05:41:16;;;;;;;;;;;5.90;99.90;;;;;;5093175;28;19924;-69
2022/11/27 05:43:42;;;;;;;;;;;5.90;99.90;;;;;;5093194;28;19946;-65
2022/11/27 05:46:09;;;;;;;;;;;5.90;99.90;;;;;;5092023;28;20039;-65
2022/11/27 05:48:35;;;;;;;;;;;5.90;99.90;;;;;;5091467;28;19931;-65
2022/11/27 05:51:01;;;;;;;;;;;5.90;99.90;;;;;;5108411;28;19924;-65
2022/11/27 05:53:27;;;;;;;;;;;5.90;99.90;;;;;;5092729;28;20022;-66
2022/11/27 05:55:52;;;;;;;;;;;5.90;99.90;;;;;;5093295;28;19924;-64
2022/11/27 05:58:18;;;;;;;;;;;5.80;99.90;;;;;;5091893;28;19982;-65
2022/11/27 06:00:44;;;;;;;;;;;5.80;99.90;;;;;;5093284;28;19931;-66
2022/11/27 06:03:09;;;;;;;;;;;5.90;99.90;;;;;;5092446;28;19924;-65
2022/11/27 06:05:38;;;;;;;;;;;5.90;99.90;;;;;;5093041;28;19924;-65
2022/11/27 06:08:04;;;;;;;;;;;5.90;99.90;;;;;;5092723;28;19932;-66
2022/11/27 06:10:30;;;;;;;;;;;5.90;99.90;;;;;;5125576;27;19969;-65
2022/11/27 06:12:55;;;;;;;;;;;5.80;99.90;;;;;;5092956;28;19985;-66
2022/11/27 06:15:21;;;;;;;;;;;6.00;99.90;;;;;;5092174;28;20371;-65
2022/11/27 06:17:50;;;;;;;;;;;5.90;99.90;;;;;;5092631;28;19924;-65
2022/11/27 06:20:16;;;;;;;;;;;5.90;99.90;;;;;;5092524;28;19924;-65
2022/11/27 06:22:41;;;;;;;;;;;6.00;99.90;;;;;;5092749;28;19931;-65
2022/11/27 06:25:07;;;;;;;;;;;5.90;99.90;;;;;;5092391;28;19924;-66
2022/11/27 06:27:33;;;;;;;;;;;5.90;99.90;;;;;;5125511;27;19928;-65
2022/11/27 06:29:59;;;;;;;;;;;5.90;99.90;;;;;;5091673;28;19924;-66
2022/11/27 06:32:25;;;;;;;;;;;5.90;99.90;;;;;;5092169;28;20255;-65
2022/11/27 06:34:50;;;;;;;;;;;5.90;99.90;;;;;;5092515;28;19928;-65
2022/11/27 06:37:16;;;;;;;;;;;5.90;99.90;;;;;;5091217;28;19947;-68
2022/11/27 06:39:41;;;;;;;;;;;5.90;99.90;;;;;;5092350;28;19924;-64
2022/11/27 06:42:07;;;;;;;;;;;6.00;99.90;;;;;;5091941;28;19931;-65
2022/11/27 06:44:33;;;;;;;;;;;5.90;99.90;;;;;;5091278;28;19928;-65
2022/11/27 06:46:58;;;;;;;;;;;6.10;99.90;;;;;;5125526;27;19938;-65
2022/11/27 06:49:24;;;;;;;;;;;5.90;99.90;;;;;;5124687;27;19924;-64
2022/11/27 06:51:49;;;;;;;;;;;6.00;99.90;;;;;;5124962;27;19924;-66
2022/11/27 06:54:15;;;;;;;;;;;6.00;99.90;;;;;;5091921;28;20334;-67
2022/11/27 06:56:40;;;;;;;;;;;6.00;99.90;;;;;;5091904;28;19931;-65
2022/11/27 06:59:06;;;;;;;;;;;6.10;99.90;;;;;;5124783;27;19976;-65
2022/11/27 07:01:33;;;;;;;;;;;6.10;99.90;;;;;;5092107;28;19928;-65
2022/11/27 07:03:58;;;;;;;;;;;6.10;99.90;;;;;;5092150;28;19935;-65
2022/11/27 07:06:25;;;;;;;;;;;6.10;99.90;;;;;;5090670;28;19924;-65
2022/11/27 07:08:51;;;;;;;;;;;6.10;99.90;;;;;;5092180;28;19924;-65
2022/11/27 07:11:18;;;;;;;;;;;6.10;99.90;;;;;;5091886;28;20350;-66
2022/11/27 07:13:45;;;;;;;;;;;6.00;99.90;;;;;;5092293;28;20412;-65
2022/11/27 07:16:11;;;;;;;;;;;6.00;99.90;;;;;;5095042;28;20281;-68
2022/11/27 07:18:47;;;;;;;;;;;6.00;99.90;;;;;;5095771;28;20329;-66
2022/11/27 07:21:13;;;;;;;;;;;6.10;99.90;;;;;;5095691;28;19931;-65
2022/11/27 07:23:39;;;;;;;;;;;6.10;99.90;;;;;;5094468;28;19924;-65
2022/11/27 07:26:12;;;;;;;;;;;6.00;99.90;;;;;;5077739;28;19924;-65
2022/11/27 07:28:37;;;;;;;;;;;6.10;99.90;;;;;;5128863;27;19930;-66
2022/11/27 07:31:03;;;;;;;;;;;6.10;99.90;;;;;;5095812;28;20011;-65
2022/11/27 07:33:29;;;;;;;;;;;6.10;99.90;;;;;;5094281;28;19924;-66
2022/11/27 07:36:03;;;;;;;;;;;6.10;99.90;;;;;;5129145;27;20014;-66
2022/11/27 07:38:28;;;;;;;;;;;6.10;99.90;;;;;;5095093;28;20397;-65
2022/11/27 07:40:54;;;;;;;;;;;6.10;99.90;;;;;;5095781;28;19931;-65
2022/11/27 07:43:19;;;;;;;;;;;6.20;99.90;;;;;;5095138;28;19935;-66
2022/11/27 07:45:45;;;;;;;;;;;6.00;99.90;;;;;;5095452;28;20151;-65
2022/11/27 07:48:11;;;;;;;;;;;6.00;99.90;;;;;;5110932;28;19950;-69
2022/11/27 07:50:38;;;;;;;;;;;6.00;99.90;;;;;;5094933;28;20065;-66
2022/11/27 07:53:03;;;;;;;;;;;6.00;99.90;;;;;;5095267;28;19931;-65
2022/11/27 07:55:29;;;;;;;;;;;6.00;99.90;;;;;;5093786;28;19930;-67
2022/11/27 07:57:54;;;;;;;;;;;5.60;99.90;;;;;;5095333;28;20062;-66
2022/11/27 08:00:20;;;;;;;;;;;6.00;99.90;;;;;;5094936;28;19924;-69
2022/11/27 08:02:46;;;;;;;;;;;6.00;99.90;;;;;;5094965;28;19975;-65
2022/11/27 08:05:11;;;;;;;;;;;6.10;99.90;;;;;;5094329;28;20026;-66
2022/11/27 08:07:37;;;;;;;;;;;6.10;99.90;;;;;;5093957;28;19978;-66
2022/11/27 08:10:02;;;;;;;;;;;6.10;99.90;;;;;;5093914;28;20293;-65
2022/11/27 08:12:28;;;;;;;;;;;6.10;99.90;;;;;;5094415;28;19928;-65
2022/11/27 08:14:53;;;;;;;;;;;6.20;99.90;;;;;;5095143;28;19933;-65
2022/11/27 08:17:19;;;;;;;;;;;6.10;99.90;;;;;;5093555;28;20346;-66
2022/11/27 08:19:45;;;;;;;;;;;6.20;99.90;;;;;;5093546;28;20000;-66
2022/11/27 08:22:11;;;;;;;;;;;6.20;99.90;;;;;;5110867;28;19970;-64
2022/11/27 08:24:37;;;;;;;;;;;6.20;99.90;;;;;;5094028;28;20353;-66
2022/11/27 08:27:03;;;;;;;;;;;6.20;99.90;;;;;;5093954;28;19928;-65
2022/11/27 08:29:29;;;;;;;;;;;6.20;99.90;;;;;;5094479;28;20435;-66
2022/11/27 08:31:54;;;;;;;;;;;6.20;99.90;;;;;;5094555;28;20007;-65
2022/11/27 08:34:20;;;;;;;;;;;6.20;99.90;;;;;;5094224;28;19924;-66
2022/11/27 08:36:45;;;;;;;;;;;6.20;99.90;;;;;;5094710;28;19969;-66
2022/11/27 08:39:11;;;;;;;;;;;6.20;99.90;;;;;;5094586;28;20071;-67
2022/11/27 08:41:37;;;;;;;;;;;6.20;99.90;;;;;;5092838;28;19925;-66
2022/11/27 08:44:02;;;;;;;;;;;6.20;99.90;;;;;;5093174;28;20297;-65
2022/11/27 08:46:28;;;;;;;;;;;6.20;99.90;;;;;;5092553;28;19943;-65
2022/11/27 08:48:53;;;;;;;;;;;6.20;99.90;;;;;;5092901;28;19924;-65
2022/11/27 08:51:19;;;;;;;;;;;6.20;99.90;;;;;;5094385;28;19925;-65
2022/11/27 08:53:45;;;;;;;;;;;6.10;99.90;;;;;;5092620;28;20332;-66
2022/11/27 08:56:17;;;;;;;;;;;6.20;99.90;;;;;;5093059;28;20011;-66
2022/11/27 08:58:42;;;;;;;;;;;6.20;99.90;;;;;;5092300;28;19928;-67
2022/11/27 09:01:18;;;;;;;;;;;6.70;99.90;;;;;;5094194;28;19934;-67
2022/11/27 09:03:44;;;;;;;;;;;6.20;99.90;;;;;;5092729;28;19971;-69
2022/11/27 09:06:11;;;;;;;;;;;6.20;99.90;;;;;;5094151;28;20379;-66
2022/11/27 09:08:39;;;;;;;;;;;6.20;99.90;;;;;;5093511;28;20038;-66
2022/11/27 09:11:05;;;;;;;;;;;6.20;99.90;;;;;;5093685;28;20019;-66
2022/11/27 09:13:31;;;;;;;;;;;6.20;99.90;;;;;;5108900;28;19932;-66
2022/11/27 09:15:57;;;;;;;;;;;6.20;99.90;;;;;;5093875;28;20001;-67
2022/11/27 09:18:23;;;;;;;;;;;6.20;99.90;;;;;;5092466;28;20032;-67
2022/11/27 09:20:59;;;;;;;;;;;6.20;99.90;;;;;;5093578;28;20011;-66
2022/11/27 09:23:24;;;;;;;;;;;6.30;99.90;;;;;;5126934;27;19924;-67
2022/11/27 09:25:50;;;;;;;;;;;6.30;99.90;;;;;;5126121;27;19973;-66
2022/11/27 09:28:15;;;;;;;;;;;6.30;99.90;;;;;;5092378;28;19931;-65
2022/11/27 09:30:41;;;;;;;;;;;6.30;99.90;;;;;;5093039;28;19976;-66
2022/11/27 09:33:07;;;;;;;;;;;6.30;99.90;;;;;;5126649;27;19924;-66
2022/11/27 09:35:32;;;;;;;;;;;6.30;99.90;;;;;;5092143;28;19935;-65
2022/11/27 09:37:58;;;;;;;;;;;6.30;99.90;;;;;;5092876;28;20025;-65
2022/11/27 09:40:24;;;;;;;;;;;6.20;99.90;;;;;;5092307;28;19931;-68
2022/11/27 09:42:54;;;;;;;;;;;6.20;99.90;;;;;;5093142;28;19964;-66
2022/11/27 09:45:21;;;;;;;;;;;6.30;99.90;;;;;;5093414;28;19925;-65
2022/11/27 09:47:49;;;;;;;;;;;6.30;99.90;;;;;;5092925;28;19928;-65
2022/11/27 09:50:20;;;;;;;;;;;6.30;99.90;;;;;;5091765;28;19924;-64
2022/11/27 09:53:04;;;;;;;;;;;6.20;99.90;;;;;;5092732;28;19927;-65
2022/11/27 09:55:40;;;;;;;;;;;6.20;99.90;;;;;;5093218;28;20275;-68
2022/11/27 09:58:12;;;;;;;;;;;6.20;99.90;;;;;;5093303;28;19931;-65
2022/11/27 10:00:37;;;;;;;;;;;6.20;99.90;;;;;;5092926;28;20326;-66
2022/11/27 10:03:04;;;;;;;;;;;6.20;99.90;;;;;;5108927;27;19978;-67
2022/11/27 10:05:45;;;;;;;;;;;6.20;99.90;;;;;;5091591;28;20486;-66
2022/11/27 10:08:33;;;;;;;;;;;6.20;99.90;;;;;;5091448;28;19975;-66
2022/11/27 10:11:12;;;;;;;;;;;6.20;99.90;;;;;;5091729;28;20305;-67
2022/11/27 10:13:44;;;;;;;;;;;6.20;99.90;;;;;;5091033;28;19928;-66
2022/11/27 10:16:19;;;;;;;;;;;6.20;99.90;;;;;;5091526;28;19925;-69
2022/11/27 10:18:48;;;;;;;;;;;6.20;99.90;;;;;;5091263;28;20027;-67
2022/11/27 10:21:16;;;;;;;;;;;6.20;99.90;;;;;;5091493;28;19924;-67
2022/11/27 10:23:54;;;;;;;;;;;6.10;99.90;;;;;;5092429;28;19924;-66
2022/11/27 10:26:23;;;;;;;;;;;6.10;99.90;;;;;;5092680;28;19943;-70
2022/11/27 10:28:58;;;;;;;;;;;6.20;99.90;;;;;;5091056;28;19924;-67
2022/11/27 10:31:27;;;;;;;;;;;6.20;99.90;;;;;;5125413;27;19963;-66
2022/11/27 10:33:54;;;;;;;;;;;6.10;99.90;;;;;;5090601;28;20343;-66
2022/11/27 10:36:26;;;;;;;;;;;6.20;99.90;;;;;;5125586;27;19930;-67
2022/11/27 10:38:53;;;;;;;;;;;6.10;99.90;;;;;;5124932;27;20167;-66
2022/11/27 10:41:41;;;;;;;;;;;6.10;99.90;;;;;;5091146;28;19928;-66
2022/11/27 10:44:26;;;;;;;;;;;6.10;99.90;;;;;;5092211;28;19986;-67
2022/11/27 10:46:54;;;;;;;;;;;6.10;99.90;;;;;;5124848;27;19924;-67
2022/11/27 10:49:19;;;;;;;;;;;6.20;99.90;;;;;;5124792;27;19928;-65
2022/11/27 10:51:45;;;;;;;;;;;6.10;99.90;;;;;;5091800;28;19924;-67
2022/11/27 10:54:16;;;;;;;;;;;6.20;99.90;;;;;;5091965;28;19924;-67
2022/11/27 10:56:51;;;;;;;;;;;6.20;99.90;;;;;;5125059;27;19924;-68
2022/11/27 10:59:29;;;;;;;;;;;6.20;99.90;;;;;;5091085;28;19979;-66
2022/11/27 11:01:57;;;;;;;;;;;6.20;99.90;;;;;;5090749;28;20270;-66
2022/11/27 11:04:27;;;;;;;;;;;6.10;99.90;;;;;;5092011;28;19924;-66
2022/11/27 11:06:53;;;;;;;;;;;6.10;99.90;;;;;;5091779;28;19932;-66
2022/11/27 11:09:27;;;;;;;;;;;6.20;99.90;;;;;;5091183;28;19924;-67
2022/11/27 11:11:54;;;;;;;;;;;6.10;99.90;;;;;;5091511;28;19924;-66
2022/11/27 11:14:21;;;;;;;;;;;6.10;99.90;;;;;;5124603;28;20234;-68
2022/11/27 11:16:47;;;;;;;;;;;6.10;99.90;;;;;;5090212;28;19924;-68
2022/11/27 11:19:24;;;;;;;;;;;6.10;99.90;;;;;;5124517;28;19931;-67
2022/11/27 11:21:50;;;;;;;;;;;6.20;99.90;;;;;;5090366;28;19931;-69
2022/11/27 11:24:21;;;;;;;;;;;6.20;99.90;;;;;;5090471;28;19931;-71
2022/11/27 11:26:52;;;;;;;;;;;6.20;99.90;;;;;;5090283;28;19925;-70
2022/11/27 11:29:27;;;;;;;;;;;6.10;99.90;;;;;;5107740;28;20025;-67
2022/11/27 11:31:53;;;;;;;;;;;6.10;99.90;;;;;;5090132;28;19924;-66
2022/11/27 11:34:21;;;;;;;;;;;6.50;99.90;;;;;;5091472;28;19924;-67
2022/11/27 11:36:57;;;;;;;;;;;6.10;99.90;;;;;;5073284;28;19924;-67
2022/11/27 11:39:24;;;;;;;;;;;6.20;99.90;;;;;;5090225;28;20400;-70
2022/11/27 11:41:50;;;;;;;;;;;6.20;99.90;;;;;;5124431;28;19924;-68
2022/11/27 11:44:20;;;;;;;;;;;6.20;99.90;;;;;;5090550;28;19924;-68
2022/11/27 11:46:53;;;;;;;;;;;6.10;99.90;;;;;;5091414;28;20393;-73
2022/11/27 11:49:23;;;;;;;;;;;6.10;99.90;;;;;;5124318;28;19973;-66
2022/11/27 11:52:05;;;;;;;;;;;6.20;99.90;;;;;;5091679;28;19928;-69
2022/11/27 11:54:39;;;;;;;;;;;6.20;99.90;;;;;;5091687;28;19977;-70
2022/11/27 11:57:22;;;;;;;;;;;6.20;99.90;;;;;;5090366;28;19924;-71
2022/11/27 11:59:47;;;;;;;;;;;6.10;99.90;;;;;;5125425;27;20437;-70
2022/11/27 12:02:22;;;;;;;;;;;6.10;99.90;;;;;;5093984;28;19928;-72
2022/11/27 12:04:48;;;;;;;;;;;6.20;99.90;;;;;;5094065;28;19924;-70
2022/11/27 12:07:25;;;;;;;;;;;6.20;99.90;;;;;;5125136;27;19930;-74
2022/11/27 12:09:51;;;;;;;;;;;6.10;99.90;;;;;;5091672;28;19981;-71
2022/11/27 12:12:55;;;;;;;;;;;6.10;99.90;;;;;;5126197;27;19928;-71
2022/11/27 12:15:27;;;;;;;;;;;6.10;99.90;;;;;;5068634;28;19928;-74
2022/11/27 12:17:55;;;;;;;;;;;6.10;99.90;;;;;;5050196;28;19925;-80
2022/11/27 12:20:32;;;;;;;;;;;6.20;99.90;;;;;;5063565;28;20443;-72
2022/11/27 12:23:11;;;;;;;;;;;6.20;99.90;;;;;;5090320;28;19928;-76
2022/11/27 12:25:56;;;;;;;;;;;6.20;99.90;;;;;;5091294;28;19924;-70
2022/11/27 12:28:21;;;;;;;;;;;6.20;99.90;;;;;;5094394;28;19924;-72
2022/11/27 12:30:50;;;;;;;;;;;6.20;99.90;;;;;;5093774;28;19924;-70
2022/11/27 12:33:22;;;;;;;;;;;6.10;99.90;;;;;;5092156;28;20033;-69
2022/11/27 12:36:06;;;;;;;;;;;6.20;99.90;;;;;;5093480;28;19971;-69
2022/11/27 12:38:32;;;;;;;;;;;6.20;99.90;;;;;;5110062;28;20027;-69
2022/11/27 12:41:13;;;;;;;;;;;6.20;99.90;;;;;;5092391;28;20011;-72
2022/11/27 12:43:41;;;;;;;;;;;6.20;99.90;;;;;;5092768;28;20038;-70
2022/11/27 12:46:33;;;;;;;;;;;6.20;99.90;;;;;;5093208;28;20023;-72
2022/11/27 12:49:14;;;;;;;;;;;6.30;99.90;;;;;;5102527;27;19924;-69
2022/11/27 12:51:47;;;;;;;;;;;6.20;99.90;;;;;;5110173;28;19942;-69
2022/11/27 12:54:16;;;;;;;;;;;6.20;99.90;;;;;;5093914;28;19967;-76
2022/11/27 12:56:42;;;;;;;;;;;6.30;99.90;;;;;;5092979;28;19924;-72
2022/11/27 12:59:15;;;;;;;;;;;6.30;99.90;;;;;;5092928;28;19928;-70
2022/11/27 13:02:07;;;;;;;;;;;6.30;99.90;;;;;;5093720;28;19931;-71
2022/11/27 13:04:38;;;;;;;;;;;6.30;99.90;;;;;;5102942;27;20068;-70
2022/11/27 13:07:07;;;;;;;;;;;6.30;99.90;;;;;;5093381;28;19928;-70
2022/11/27 13:09:56;;;;;;;;;;;6.30;99.90;;;;;;5126182;27;19931;-71
2022/11/27 13:12:48;;;;;;;;;;;6.30;99.90;;;;;;5096130;27;19985;-72
2022/11/27 13:15:29;;;;;;;;;;;6.30;99.90;;;;;;5102246;27;19977;-69
2022/11/27 13:18:01;;;;;;;;;;;6.30;99.90;;;;;;5093467;28;19924;-70
2022/11/27 13:20:39;;;;;;;;;;;6.20;99.90;;;;;;5075283;28;19943;-73
2022/11/27 13:23:04;;;;;;;;;;;6.30;99.90;;;;;;5093431;28;19931;-70
2022/11/27 13:25:32;;;;;;;;;;;6.30;99.90;;;;;;5092498;28;20319;-70
2022/11/27 13:27:59;;;;;;;;;;;6.30;99.90;;;;;;5093102;28;20368;-71
2022/11/27 13:30:26;;;;;;;;;;;6.30;99.90;;;;;;5093265;28;20008;-69
2022/11/27 13:32:55;;;;;;;;;;;6.30;99.90;;;;;;5091886;28;20281;-71
2022/11/27 13:35:32;;;;;;;;;;;6.30;99.90;;;;;;5091924;28;19924;-72
2022/11/27 13:38:18;;;;;;;;;;;6.30;99.90;;;;;;5124848;27;20166;-69
2022/11/27 13:40:46;;;;;;;;;;;6.50;99.90;;;;;;5091793;28;19924;-76
2022/11/27 13:43:20;;;;;;;;;;;6.30;99.90;;;;;;5091634;28;19931;-68
2022/11/27 13:45:46;;;;;;;;;;;6.30;99.90;;;;;;5126111;27;19924;-68
2022/11/27 13:48:25;;;;;;;;;;;6.30;99.90;;;;;;5073565;28;19924;-68
2022/11/27 13:50:51;;;;;;;;;;;6.30;99.90;;;;;;5093246;28;20028;-67
2022/11/27 13:53:17;;;;;;;;;;;6.40;99.90;;;;;;5093011;28;19986;-67
2022/11/27 13:55:53;;;;;;;;;;;6.40;99.90;;;;;;5093093;28;19975;-67
2022/11/27 13:58:29;;;;;;;;;;;6.40;99.90;;;;;;5092433;28;20414;-69
2022/11/27 14:00:55;;;;;;;;;;;6.40;99.90;;;;;;5092861;28;19931;-68
2022/11/27 14:03:26;;;;;;;;;;;6.40;99.90;;;;;;5092709;28;19924;-74
2022/11/27 14:05:51;;;;;;;;;;;6.40;99.90;;;;;;5092945;28;20400;-67
2022/11/27 14:08:19;;;;;;;;;;;6.40;99.90;;;;;;5092460;28;19970;-66
2022/11/27 14:10:50;;;;;;;;;;;6.40;99.90;;;;;;5092784;28;20010;-66
2022/11/27 14:13:15;;;;;;;;;;;6.40;99.90;;;;;;5092346;28;19924;-68
2022/11/27 14:15:41;;;;;;;;;;;6.40;99.90;;;;;;5092737;28;20329;-67
2022/11/27 14:18:08;;;;;;;;;;;6.40;99.90;;;;;;5091947;28;19924;-68
2022/11/27 14:20:35;;;;;;;;;;;6.40;99.90;;;;;;5092770;28;19924;-68
2022/11/27 14:23:01;;;;;;;;;;;6.40;99.90;;;;;;5124993;27;19924;-71
2022/11/27 14:25:32;;;;;;;;;;;6.50;99.90;;;;;;5108344;28;19989;-69
2022/11/27 14:28:10;;;;;;;;;;;6.40;99.90;;;;;;5074420;28;20031;-68
2022/11/27 14:30:40;;;;;;;;;;;6.40;99.90;;;;;;5092546;28;20022;-68
2022/11/27 14:33:15;;;;;;;;;;;6.40;99.90;;;;;;5091458;28;20089;-71
2022/11/27 14:35:41;;;;;;;;;;;6.40;99.90;;;;;;5091457;28;20019;-69
2022/11/27 14:38:10;;;;;;;;;;;6.30;99.90;;;;;;5091271;28;20015;-67
2022/11/27 14:40:35;;;;;;;;;;;6.30;99.90;;;;;;5092323;28;19924;-67